createdAt,value
2018-09-12T00:02:17.493Z,96.43
2018-09-12T00:04:45.782Z,96.27
2018-09-12T00:07:19.186Z,96.19
2018-09-12T00:09:47.390Z,97.74
2018-09-12T00:12:15.670Z,97.45
2018-09-12T00:14:43.861Z,98.42
2018-09-12T00:17:12.138Z,97.78
2018-09-12T00:19:40.422Z,98.77
2018-09-12T00:22:08.625Z,99.72
2018-09-12T00:24:36.957Z,98.99
2018-09-12T00:27:05.159Z,97.64
2018-09-12T00:29:33.330Z,98.13
2018-09-12T00:32:01.544Z,98.67
2018-09-12T00:34:29.781Z,98.97
2018-09-12T00:36:58.097Z,99.35
2018-09-12T00:39:26.277Z,99.95
2018-09-12T00:41:54.469Z,98.24
2018-09-12T00:44:22.662Z,99.85
2018-09-12T00:46:50.869Z,99.56
2018-09-12T00:49:19.066Z,99.46
2018-09-12T00:51:47.251Z,99.21
2018-09-12T00:54:15.435Z,99.11
2018-09-12T00:56:43.618Z,99.29
2018-09-12T00:59:11.802Z,99.27
2018-09-12T01:01:40.014Z,99.46
2018-09-12T01:04:08.215Z,100.00
2018-09-12T01:06:36.425Z,99.99
2018-09-12T01:09:05.941Z,100.00
2018-09-12T01:11:34.142Z,99.98
2018-09-12T01:14:02.400Z,100.00
2018-09-12T01:16:32.934Z,99.43
2018-09-12T01:19:01.102Z,99.31
2018-09-12T01:21:29.654Z,100.00
2018-09-12T01:23:58.119Z,100.00
2018-09-12T01:26:26.410Z,99.95
2018-09-12T01:28:54.623Z,100.00
2018-09-12T01:31:22.893Z,100.00
2018-09-12T01:33:51.414Z,100.00
2018-09-12T01:36:19.615Z,100.00
2018-09-12T01:38:47.801Z,100.00
2018-09-12T01:41:16.033Z,100.00
2018-09-12T01:43:44.245Z,100.00
2018-09-12T01:46:12.513Z,100.00
2018-09-12T01:48:40.706Z,100.00
2018-09-12T01:51:08.898Z,100.00
2018-09-12T01:53:37.085Z,100.00
2018-09-12T01:56:05.287Z,100.00
2018-09-12T01:58:33.466Z,100.00
2018-09-12T02:01:01.740Z,100.00
2018-09-12T02:03:29.922Z,100.00
2018-09-12T02:05:58.134Z,100.00
2018-09-12T02:08:26.383Z,100.00
2018-09-12T02:10:54.572Z,100.00
2018-09-12T02:13:22.756Z,100.00
2018-09-12T02:15:51.085Z,100.00
2018-09-12T02:18:19.261Z,100.00
2018-09-12T02:20:47.452Z,100.00
2018-09-12T02:23:15.705Z,100.00
2018-09-12T02:25:43.905Z,100.00
2018-09-12T02:28:12.085Z,100.00
2018-09-12T02:30:40.382Z,100.00
2018-09-12T02:33:08.573Z,100.00
2018-09-12T02:35:40.918Z,100.00
2018-09-12T02:38:09.110Z,100.00
2018-09-12T02:40:37.325Z,100.00
2018-09-12T02:43:05.609Z,100.00
2018-09-12T02:45:33.973Z,100.00
2018-09-12T02:48:02.165Z,100.00
2018-09-12T02:50:30.362Z,100.00
2018-09-12T02:52:58.550Z,100.00
2018-09-12T02:55:26.746Z,100.00
2018-09-12T02:57:54.949Z,100.00
2018-09-12T03:00:23.151Z,100.00
2018-09-12T03:02:51.418Z,100.00
2018-09-12T03:05:19.653Z,100.00
2018-09-12T03:07:47.877Z,100.00
2018-09-12T03:10:16.025Z,99.97
2018-09-12T03:12:44.299Z,100.00
2018-09-12T03:15:12.489Z,100.00
2018-09-12T03:17:40.695Z,100.00
2018-09-12T03:20:08.897Z,100.00
2018-09-12T03:22:37.084Z,100.00
2018-09-12T03:25:05.297Z,100.00
2018-09-12T03:27:33.497Z,100.00
2018-09-12T03:30:01.699Z,100.00
2018-09-12T03:32:29.874Z,100.00
2018-09-12T03:34:58.077Z,100.00
2018-09-12T03:37:26.330Z,100.00
2018-09-12T03:39:54.520Z,100.00
2018-09-12T03:42:22.715Z,100.00
2018-09-12T03:44:50.922Z,100.00
2018-09-12T03:47:19.112Z,100.00
2018-09-12T03:49:47.313Z,100.00
2018-09-12T03:52:15.526Z,100.00
2018-09-12T03:54:43.750Z,100.00
2018-09-12T03:57:11.942Z,100.00
2018-09-12T03:59:40.146Z,100.00
2018-09-12T04:02:08.345Z,100.00
2018-09-12T04:04:36.549Z,100.00
2018-09-12T04:07:04.778Z,100.00
2018-09-12T04:09:34.403Z,100.00
2018-09-12T04:12:02.609Z,100.00
2018-09-12T04:14:30.838Z,100.00
2018-09-12T04:16:59.112Z,100.00
2018-09-12T04:19:27.258Z,100.00
2018-09-12T04:21:55.629Z,100.00
2018-09-12T04:24:23.917Z,100.00
2018-09-12T04:26:52.030Z,100.00
2018-09-12T04:29:20.301Z,100.00
2018-09-12T04:31:48.506Z,100.00
2018-09-12T04:34:16.705Z,100.00
2018-09-12T04:36:44.953Z,100.00
2018-09-12T04:39:13.734Z,100.00
2018-09-12T04:41:41.942Z,100.00
2018-09-12T04:44:10.214Z,100.00
2018-09-12T04:46:38.418Z,100.00
2018-09-12T04:49:06.829Z,100.00
2018-09-12T04:51:35.037Z,100.00
2018-09-12T04:54:03.238Z,100.00
2018-09-12T04:56:31.437Z,100.00
2018-09-12T04:58:59.636Z,100.00
2018-09-12T05:01:27.839Z,100.00
2018-09-12T05:03:56.169Z,100.00
2018-09-12T05:06:24.383Z,100.00
2018-09-12T05:08:52.605Z,100.00
2018-09-12T05:11:20.810Z,100.00
2018-09-12T05:13:49.437Z,100.00
2018-09-12T05:16:17.638Z,100.00
2018-09-12T05:18:45.837Z,100.00
2018-09-12T05:21:14.050Z,100.00
2018-09-12T05:23:42.317Z,100.00
2018-09-12T05:26:10.503Z,100.00
2018-09-12T05:28:38.755Z,100.00
2018-09-12T05:31:06.924Z,100.00
2018-09-12T05:33:35.160Z,100.00
2018-09-12T05:36:03.383Z,100.00
2018-09-12T05:38:31.608Z,100.00
2018-09-12T05:40:59.854Z,100.00
2018-09-12T05:43:28.070Z,100.00
2018-09-12T05:45:56.338Z,100.00
2018-09-12T05:48:24.549Z,100.00
2018-09-12T05:52:17.209Z,100.00
2018-09-12T05:54:45.417Z,100.00
2018-09-12T05:57:13.618Z,100.00
2018-09-12T05:59:41.882Z,100.00
2018-09-12T06:02:10.061Z,100.00
2018-09-12T06:04:38.395Z,100.00
2018-09-12T06:07:06.727Z,100.00
2018-09-12T06:09:34.829Z,100.00
2018-09-12T06:12:03.013Z,99.63
2018-09-12T06:14:31.203Z,99.26
2018-09-12T06:16:59.389Z,99.45
2018-09-12T06:19:27.576Z,98.45
2018-09-12T06:21:55.758Z,97.12
2018-09-12T06:24:23.958Z,96.98
2018-09-12T06:26:52.149Z,97.21
2018-09-12T06:29:20.333Z,95.06
2018-09-12T06:31:48.546Z,96.26
2018-09-12T06:34:16.730Z,97.52
2018-09-12T06:36:45.020Z,95.28
2018-09-12T06:39:13.993Z,95.05
2018-09-12T06:41:42.145Z,94.84
2018-09-12T06:44:10.333Z,94.25
2018-09-12T06:46:38.698Z,93.44
2018-09-12T06:49:07.502Z,92.94
2018-09-12T06:51:35.797Z,92.62
2018-09-12T06:54:04.282Z,91.77
2018-09-12T06:56:32.469Z,91.62
2018-09-12T06:59:00.657Z,91.31
2018-09-12T07:01:29.042Z,91.71
2018-09-12T07:03:57.234Z,89.91
2018-09-12T07:06:25.479Z,89.89
2018-09-12T07:08:53.799Z,88.59
2018-09-12T07:11:21.974Z,88.69
2018-09-12T07:13:50.509Z,88.84
2018-09-12T07:16:18.697Z,87.94
2018-09-12T07:18:46.882Z,87.89
2018-09-12T07:21:15.066Z,87.00
2018-09-12T07:23:43.366Z,86.16
2018-09-12T07:26:11.703Z,88.53
2018-09-12T07:28:39.937Z,85.96
2018-09-12T07:31:08.121Z,84.71
2018-09-12T07:33:36.313Z,84.05
2018-09-12T07:36:04.522Z,84.73
2018-09-12T07:38:32.727Z,84.55
2018-09-12T07:41:00.932Z,82.97
2018-09-12T07:43:29.454Z,82.70
2018-09-12T07:45:57.668Z,81.20
2018-09-12T07:48:26.080Z,81.26
2018-09-12T07:50:54.936Z,80.96
2018-09-12T07:53:23.846Z,81.33
2018-09-12T07:55:52.355Z,80.32
2018-09-12T07:58:20.799Z,78.68
2018-09-12T08:00:49.404Z,77.11
2018-09-12T08:03:17.638Z,77.45
2018-09-12T08:05:46.484Z,77.63
2018-09-12T08:08:15.192Z,77.13
2018-09-12T08:10:43.431Z,76.56
2018-09-12T08:13:12.101Z,78.77
2018-09-12T08:15:41.086Z,75.67
2018-09-12T08:18:09.609Z,74.62
2018-09-12T08:20:38.055Z,75.59
2018-09-12T08:23:07.141Z,74.35
2018-09-12T08:25:35.394Z,73.74
2018-09-12T08:28:04.234Z,72.49
2018-09-12T08:30:33.139Z,71.86
2018-09-12T08:33:01.413Z,73.09
2018-09-12T08:35:29.781Z,71.42
2018-09-12T08:37:58.414Z,73.05
2018-09-12T08:40:26.798Z,71.53
2018-09-12T08:42:55.591Z,71.34
2018-09-12T08:45:24.343Z,69.61
2018-09-12T08:47:52.924Z,69.36
2018-09-12T08:50:23.634Z,68.15
2018-09-12T08:52:52.731Z,68.46
2018-09-12T08:55:21.531Z,67.53
2018-09-12T08:57:50.299Z,67.93
2018-09-12T09:00:18.928Z,66.52
2018-09-12T09:02:47.242Z,67.27
2018-09-12T09:05:16.019Z,65.45
2018-09-12T09:07:44.289Z,63.98
2018-09-12T09:10:12.478Z,64.67
2018-09-12T09:12:40.774Z,64.54
2018-09-12T09:15:08.974Z,64.64
2018-09-12T09:17:37.174Z,63.68
2018-09-12T09:20:05.369Z,62.79
2018-09-12T09:22:33.599Z,62.03
2018-09-12T09:25:01.849Z,63.95
2018-09-12T09:27:30.069Z,61.36
2018-09-12T09:29:58.298Z,60.11
2018-09-12T09:32:26.613Z,60.80
2018-09-12T09:34:55.084Z,60.63
2018-09-12T09:37:23.266Z,60.05
2018-09-12T09:39:51.500Z,59.73
2018-09-12T09:42:19.716Z,59.45
2018-09-12T09:44:50.399Z,58.25
2018-09-12T09:47:18.689Z,57.78
2018-09-12T09:49:46.931Z,58.90
2018-09-12T09:52:15.202Z,57.30
2018-09-12T09:54:43.522Z,57.51
2018-09-12T09:57:11.725Z,57.11
2018-09-12T09:59:39.961Z,56.84
2018-09-12T10:02:13.429Z,57.27
2018-09-12T10:04:47.085Z,56.00
2018-09-12T10:07:46.182Z,57.53
2018-09-12T10:10:14.513Z,55.36
2018-09-12T10:13:46.102Z,54.66
2018-09-12T10:16:14.314Z,53.75
2018-09-12T10:18:42.569Z,53.06
2018-09-12T10:21:10.781Z,53.22
2018-09-12T10:23:39.023Z,52.09
2018-09-12T10:26:07.214Z,52.21
2018-09-12T10:28:35.421Z,51.10
2018-09-12T10:31:03.611Z,51.17
2018-09-12T10:33:31.814Z,51.59
2018-09-12T10:36:00.026Z,50.38
2018-09-12T10:38:28.565Z,48.58
2018-09-12T10:40:59.433Z,47.81
2018-09-12T10:43:28.045Z,48.36
2018-09-12T10:45:56.502Z,47.53
2018-09-12T10:48:24.753Z,46.63
2018-09-12T10:50:52.961Z,47.54
2018-09-12T10:53:21.176Z,46.31
2018-09-12T10:55:49.626Z,47.64
2018-09-12T10:58:17.873Z,46.65
2018-09-12T11:00:46.149Z,45.81
2018-09-12T11:03:15.061Z,45.50
2018-09-12T11:05:43.284Z,45.95
2018-09-12T11:08:11.530Z,45.33
2018-09-12T11:10:39.785Z,46.46
2018-09-12T11:13:07.997Z,45.31
2018-09-12T11:15:36.194Z,46.98
2018-09-12T11:18:04.417Z,47.12
2018-09-12T11:20:32.662Z,45.89
2018-09-12T11:23:00.928Z,45.95
2018-09-12T11:25:29.126Z,47.82
2018-09-12T11:27:57.333Z,47.33
2018-09-12T11:30:25.630Z,46.98
2018-09-12T11:32:53.898Z,47.53
2018-09-12T11:35:22.098Z,47.31
2018-09-12T11:37:50.313Z,47.03
2018-09-12T11:40:18.506Z,46.54
2018-09-12T11:42:46.690Z,47.58
2018-09-12T11:45:14.874Z,46.86
2018-09-12T11:47:43.095Z,47.94
2018-09-12T11:50:11.329Z,46.81
2018-09-12T11:52:39.590Z,47.03
2018-09-12T11:55:07.782Z,45.99
2018-09-12T11:57:36.017Z,46.61
2018-09-12T12:00:04.526Z,46.96
2018-09-12T12:02:32.761Z,42.97
2018-09-12T12:05:00.975Z,40.48
2018-09-12T12:07:29.179Z,39.86
2018-09-12T12:09:57.388Z,38.03
2018-09-12T12:12:25.599Z,38.65
2018-09-12T12:14:53.789Z,38.76
2018-09-12T12:17:21.993Z,39.96
2018-09-12T12:19:50.197Z,39.50
2018-09-12T12:22:18.473Z,38.35
2018-09-12T12:24:46.662Z,39.71
2018-09-12T12:27:14.931Z,38.54
2018-09-12T12:29:43.172Z,38.16
2018-09-12T12:33:40.562Z,38.61
2018-09-12T12:36:09.282Z,38.34
2018-09-12T12:38:37.642Z,39.91
2018-09-12T12:41:05.884Z,39.12
2018-09-12T12:43:34.087Z,39.34
2018-09-12T12:46:02.314Z,38.22
2018-09-12T12:48:30.561Z,38.23
2018-09-12T12:50:58.837Z,37.82
2018-09-12T12:53:27.049Z,38.78
2018-09-12T12:55:55.237Z,38.14
2018-09-12T12:58:23.485Z,37.74
2018-09-12T13:00:51.757Z,37.99
2018-09-12T13:03:19.936Z,38.97
2018-09-12T13:05:48.127Z,40.47
2018-09-12T13:08:16.415Z,39.47
2018-09-12T13:10:44.610Z,39.06
2018-09-12T13:13:12.929Z,38.67
2018-09-12T13:15:41.113Z,39.60
2018-09-12T13:18:09.318Z,39.51
2018-09-12T13:20:37.562Z,38.26
2018-09-12T13:23:05.848Z,39.99
2018-09-12T13:25:34.046Z,40.83
2018-09-12T13:28:02.251Z,38.70
2018-09-12T13:30:30.421Z,38.99
2018-09-12T13:32:58.692Z,39.28
2018-09-12T13:35:26.875Z,40.63
2018-09-12T13:37:55.063Z,41.17
2018-09-12T13:40:23.261Z,42.86
2018-09-12T13:42:51.494Z,40.06
2018-09-12T13:45:19.748Z,40.47
2018-09-12T13:47:47.977Z,37.58
2018-09-12T13:50:17.126Z,38.40
2018-09-12T13:52:46.840Z,39.74
2018-09-12T13:55:15.237Z,37.41
2018-09-12T13:57:43.842Z,39.71
2018-09-12T14:00:12.050Z,38.63
2018-09-12T14:02:40.269Z,39.45
2018-09-12T14:05:08.492Z,37.67
2018-09-12T14:07:36.748Z,37.73
2018-09-12T14:10:05.377Z,37.50
2018-09-12T14:12:33.574Z,38.70
2018-09-12T14:15:01.765Z,38.85
2018-09-12T14:17:30.273Z,37.80
2018-09-12T14:19:58.485Z,38.62
2018-09-12T14:22:26.713Z,38.32
2018-09-12T14:24:54.981Z,38.63
2018-09-12T14:27:23.106Z,39.05
2018-09-12T14:29:51.330Z,39.64
2018-09-12T14:32:19.665Z,38.71
2018-09-12T14:34:47.737Z,37.38
2018-09-12T14:37:15.949Z,38.58
2018-09-12T14:39:44.128Z,38.30
2018-09-12T14:42:12.342Z,38.65
2018-09-12T14:44:40.559Z,39.62
2018-09-12T14:47:08.754Z,37.70
2018-09-12T14:49:36.961Z,38.67
2018-09-12T14:52:05.182Z,39.73
2018-09-12T14:54:33.357Z,38.45
2018-09-12T14:57:01.538Z,38.45
2018-09-12T14:59:29.721Z,38.47
2018-09-12T15:01:58.009Z,40.53
2018-09-12T15:04:26.230Z,39.92
2018-09-12T15:06:54.450Z,36.53
2018-09-12T15:09:22.641Z,37.67
2018-09-12T15:11:50.833Z,38.82
2018-09-12T15:14:19.034Z,41.38
2018-09-12T15:16:47.249Z,41.53
2018-09-12T15:19:15.445Z,41.93
2018-09-12T15:21:43.741Z,41.13
2018-09-12T15:24:12.042Z,41.81
2018-09-12T15:26:40.967Z,39.55
2018-09-12T15:29:09.509Z,41.66
2018-09-12T15:31:37.691Z,38.62
2018-09-12T15:34:05.971Z,40.09
2018-09-12T15:36:34.165Z,39.87
2018-09-12T15:39:02.364Z,37.47
2018-09-12T15:41:30.649Z,39.83
2018-09-12T15:43:58.753Z,40.32
2018-09-12T15:46:27.109Z,39.45
2018-09-12T15:48:55.311Z,39.93
2018-09-12T15:51:23.505Z,38.92
2018-09-12T15:53:51.701Z,40.41
2018-09-12T15:56:19.889Z,39.49
2018-09-12T15:58:48.211Z,39.83
2018-09-12T16:01:16.401Z,38.87
2018-09-12T16:03:44.707Z,40.58
2018-09-12T16:06:12.904Z,39.41
2018-09-12T16:08:41.130Z,40.10
2018-09-12T16:11:09.314Z,40.49
2018-09-12T16:13:37.536Z,39.53
2018-09-12T16:16:05.743Z,40.24
2018-09-12T16:18:34.010Z,40.71
2018-09-12T16:21:02.263Z,40.66
2018-09-12T16:23:30.456Z,41.11
2018-09-12T16:25:58.641Z,41.79
2018-09-12T16:28:26.858Z,41.29
2018-09-12T16:30:55.165Z,41.38
2018-09-12T16:33:23.358Z,41.85
2018-09-12T16:35:51.614Z,41.99
2018-09-12T16:38:19.918Z,42.52
2018-09-12T16:40:48.198Z,41.92
2018-09-12T16:43:16.377Z,41.98
2018-09-12T16:45:44.617Z,42.83
2018-09-12T16:48:12.838Z,41.58
2018-09-12T16:50:41.041Z,41.58
2018-09-12T16:53:09.249Z,42.68
2018-09-12T16:55:37.466Z,41.87
2018-09-12T16:58:05.657Z,43.36
2018-09-12T17:00:33.836Z,45.00
2018-09-12T17:03:02.118Z,42.25
2018-09-12T17:05:30.330Z,42.40
2018-09-12T17:07:58.541Z,43.07
2018-09-12T17:10:26.732Z,43.99
2018-09-12T17:12:55.001Z,44.11
2018-09-12T17:15:23.358Z,46.46
2018-09-12T17:17:51.648Z,47.83
2018-09-12T17:20:19.877Z,46.71
2018-09-12T17:22:48.062Z,49.16
2018-09-12T17:25:16.422Z,50.98
2018-09-12T17:27:44.618Z,51.79
2018-09-12T17:30:12.797Z,51.76
2018-09-12T17:32:41.002Z,53.84
2018-09-12T17:35:09.182Z,53.53
2018-09-12T17:37:38.217Z,54.18
2018-09-12T17:40:06.447Z,54.28
2018-09-12T17:42:34.692Z,54.85
2018-09-12T17:45:02.882Z,55.42
2018-09-12T17:47:31.086Z,57.09
2018-09-12T17:49:59.385Z,55.89
2018-09-12T17:52:27.639Z,57.64
2018-09-12T17:54:55.817Z,57.60
2018-09-12T17:57:24.011Z,57.95
2018-09-12T17:59:52.270Z,57.50
2018-09-12T18:02:20.470Z,58.60
2018-09-12T18:04:48.657Z,59.14
2018-09-12T18:07:16.935Z,58.90
2018-09-12T18:09:45.121Z,60.16
2018-09-12T18:12:13.371Z,59.67
2018-09-12T18:14:41.584Z,59.82
2018-09-12T18:17:09.811Z,60.49
2018-09-12T18:19:38.009Z,59.41
2018-09-12T18:22:06.412Z,59.97
2018-09-12T18:24:34.734Z,59.73
2018-09-12T18:27:04.252Z,60.99
2018-09-12T18:29:34.710Z,61.64
2018-09-12T18:32:03.067Z,61.40
2018-09-12T18:34:31.515Z,60.99
2018-09-12T18:36:59.745Z,62.13
2018-09-12T18:39:28.008Z,62.71
2018-09-12T18:41:56.314Z,62.12
2018-09-12T18:44:24.557Z,62.62
2018-09-12T18:46:52.884Z,61.75
2018-09-12T18:49:21.122Z,62.06
2018-09-12T18:51:49.462Z,62.68
2018-09-12T18:54:17.717Z,62.94
2018-09-12T18:56:46.018Z,64.65
2018-09-12T18:59:14.357Z,64.11
2018-09-12T19:01:42.773Z,64.25
2018-09-12T19:04:11.143Z,63.98
2018-09-12T19:06:39.403Z,66.39
2018-09-12T19:09:09.077Z,67.89
2018-09-12T19:11:37.274Z,67.01
2018-09-12T19:14:05.609Z,67.17
2018-09-12T19:16:34.133Z,67.37
2018-09-12T19:19:02.519Z,65.57
2018-09-12T19:21:30.740Z,64.99
2018-09-12T19:23:59.242Z,66.64
2018-09-12T19:26:27.545Z,66.31
2018-09-12T19:28:55.845Z,67.01
2018-09-12T19:31:24.109Z,68.48
2018-09-12T19:33:52.376Z,69.12
2018-09-12T19:36:20.851Z,69.61
2018-09-12T19:38:49.075Z,69.01
2018-09-12T19:41:17.461Z,70.28
2018-09-12T19:43:45.785Z,71.91
2018-09-12T19:46:14.077Z,70.85
2018-09-12T19:48:42.345Z,71.13
2018-09-12T19:51:16.642Z,71.64
2018-09-12T19:53:45.330Z,72.42
2018-09-12T19:56:14.545Z,73.95
2018-09-12T19:58:44.565Z,75.44
2018-09-12T20:01:12.789Z,73.24
2018-09-12T20:03:41.101Z,72.81
2018-09-12T20:06:09.390Z,74.11
2018-09-12T20:08:37.721Z,74.24
2018-09-12T20:11:06.146Z,75.33
2018-09-12T20:13:34.357Z,73.54
2018-09-12T20:16:04.887Z,73.32
2018-09-12T20:18:33.105Z,70.68
2018-09-12T20:21:01.465Z,70.69
2018-09-12T20:23:30.138Z,64.62
2018-09-12T20:25:59.603Z,62.09
2018-09-12T20:28:27.983Z,62.06
2018-09-12T20:30:56.343Z,62.85
2018-09-12T20:33:24.590Z,66.44
2018-09-12T20:35:52.887Z,72.81
2018-09-12T20:38:21.161Z,75.39
2018-09-12T20:40:49.457Z,80.40
2018-09-12T20:43:20.404Z,88.12
2018-09-12T20:45:48.726Z,91.82
2018-09-12T20:49:20.250Z,92.78
2018-09-12T20:51:48.518Z,100.00
2018-09-12T20:54:17.369Z,100.00
2018-09-12T20:56:46.713Z,100.00
2018-09-12T20:59:14.977Z,100.00
2018-09-12T21:01:43.228Z,100.00
2018-09-12T21:04:11.427Z,100.00
2018-09-12T21:06:39.706Z,100.00
2018-09-12T21:09:10.419Z,100.00
2018-09-12T21:11:39.230Z,100.00
2018-09-12T21:14:08.108Z,100.00
2018-09-12T21:16:36.701Z,100.00
2018-09-12T21:19:05.306Z,100.00
2018-09-12T21:21:33.528Z,100.00
2018-09-12T21:24:01.834Z,100.00
2018-09-12T21:26:30.109Z,100.00
2018-09-12T21:28:58.491Z,100.00
2018-09-12T21:31:26.758Z,100.00
2018-09-12T21:33:55.112Z,100.00
2018-09-12T21:36:23.621Z,100.00
2018-09-12T21:38:52.101Z,100.00
2018-09-12T21:41:20.378Z,100.00
2018-09-12T21:43:48.631Z,100.00
2018-09-12T21:46:16.937Z,100.00
2018-09-12T21:48:45.262Z,100.00
2018-09-12T21:51:13.545Z,100.00
2018-09-12T21:53:41.801Z,100.00
2018-09-12T21:56:10.177Z,100.00
2018-09-12T21:58:38.485Z,100.00
2018-09-12T22:01:06.826Z,100.00
2018-09-12T22:03:35.009Z,100.00
2018-09-12T22:06:03.253Z,100.00
2018-09-12T22:08:31.621Z,100.00
2018-09-12T22:10:59.944Z,100.00
2018-09-12T22:13:28.157Z,100.00
2018-09-12T22:15:56.476Z,100.00
2018-09-12T22:18:24.777Z,100.00
2018-09-12T22:20:53.122Z,100.00
2018-09-12T22:23:21.333Z,100.00
2018-09-12T22:25:49.529Z,100.00
2018-09-12T22:28:17.873Z,100.00
2018-09-12T22:30:46.172Z,100.00
2018-09-12T22:33:14.393Z,100.00
2018-09-12T22:35:42.608Z,100.00
2018-09-12T22:38:10.891Z,100.00
2018-09-12T22:40:39.285Z,100.00
2018-09-12T22:43:07.597Z,100.00
2018-09-12T22:45:35.796Z,100.00
2018-09-12T22:48:04.026Z,100.00
2018-09-12T22:50:32.288Z,100.00
2018-09-12T22:53:00.493Z,100.00
2018-09-12T22:55:28.746Z,100.00
2018-09-12T22:57:56.986Z,100.00
2018-09-12T23:00:25.294Z,100.00
2018-09-12T23:02:53.486Z,100.00
2018-09-12T23:05:21.761Z,100.00
2018-09-12T23:07:50.034Z,100.00
2018-09-12T23:10:18.244Z,100.00
2018-09-12T23:12:46.497Z,100.00
2018-09-12T23:15:14.813Z,100.00
2018-09-12T23:17:43.009Z,100.00
2018-09-12T23:20:11.217Z,100.00
2018-09-12T23:22:39.449Z,100.00
2018-09-12T23:25:07.672Z,100.00
2018-09-12T23:27:35.930Z,100.00
2018-09-12T23:30:04.137Z,100.00
2018-09-12T23:32:32.341Z,100.00
2018-09-12T23:35:00.537Z,100.00
2018-09-12T23:37:28.782Z,100.00
2018-09-12T23:39:56.982Z,100.00
2018-09-12T23:42:25.213Z,100.00
2018-09-12T23:44:53.423Z,100.00
2018-09-12T23:47:21.626Z,100.00
2018-09-12T23:49:49.825Z,100.00
2018-09-12T23:52:18.028Z,100.00
2018-09-12T23:54:46.242Z,100.00
2018-09-12T23:57:14.437Z,100.00
2018-09-12T23:59:42.673Z,100.00
